sensor_id;sensor_type;location;lat;lon;timestamp;pressure;altitude;pressure_sealevel;temperature;humidity
14689;BME280;7432;48.728;9.154;2023-03-15T00:01:32;96127.16;;;2.50;92.90
14689;BME280;7432;48.728;9.154;2023-03-15T00:03:59;96134.66;;;2.51;93.97
14689;BME280;7432;48.728;9.154;2023-03-15T00:06:25;96144.13;;;2.49;93.84
14689;BME280;7432;48.728;9.154;2023-03-15T00:08:51;96160.41;;;2.58;93.02
14689;BME280;7432;48.728;9.154;2023-03-15T00:11:18;96165.94;;;2.52;93.65
14689;BME280;7432;48.728;9.154;2023-03-15T00:13:45;96156.03;;;2.49;92.31
14689;BME280;7432;48.728;9.154;2023-03-15T00:16:13;96172.28;;;2.57;92.36
14689;BME280;7432;48.728;9.154;2023-03-15T00:18:41;96182.44;;;2.57;93.20
14689;BME280;7432;48.728;9.154;2023-03-15T00:21:08;96188.94;;;2.61;92.26
14689;BME280;7432;48.728;9.154;2023-03-15T00:23:34;96200.56;;;2.75;91.84
14689;BME280;7432;48.728;9.154;2023-03-15T00:26:00;96199.38;;;2.79;91.51
14689;BME280;7432;48.728;9.154;2023-03-15T00:28:27;96198.09;;;2.84;92.05
14689;BME280;7432;48.728;9.154;2023-03-15T00:31:02;96202.19;;;2.76;90.29
14689;BME280;7432;48.728;9.154;2023-03-15T00:33:30;96209.22;;;2.83;91.24
14689;BME280;7432;48.728;9.154;2023-03-15T00:36:01;96216.97;;;2.71;90.43
14689;BME280;7432;48.728;9.154;2023-03-15T00:38:28;96203.94;;;2.64;90.73
14689;BME280;7432;48.728;9.154;2023-03-15T00:40:54;96208.66;;;2.69;91.39
14689;BME280;7432;48.728;9.154;2023-03-15T00:43:21;96214.22;;;2.63;91.75
14689;BME280;7432;48.728;9.154;2023-03-15T00:45:47;96221.16;;;2.61;91.25
14689;BME280;7432;48.728;9.154;2023-03-15T00:48:14;96226.81;;;2.64;90.23
14689;BME280;7432;48.728;9.154;2023-03-15T00:50:41;96223.03;;;2.48;91.14
14689;BME280;7432;48.728;9.154;2023-03-15T00:53:08;96229.72;;;2.49;92.54
14689;BME280;7432;48.728;9.154;2023-03-15T00:55:35;96229.03;;;2.47;91.85
14689;BME280;7432;48.728;9.154;2023-03-15T00:58:02;96254.19;;;2.50;91.25
14689;BME280;7432;48.728;9.154;2023-03-15T01:00:28;96262.84;;;2.58;92.10
14689;BME280;7432;48.728;9.154;2023-03-15T01:02:55;96261.81;;;2.61;92.89
14689;BME280;7432;48.728;9.154;2023-03-15T01:05:21;96257.31;;;2.64;91.02
14689;BME280;7432;48.728;9.154;2023-03-15T01:07:50;96263.44;;;2.73;91.81
14689;BME280;7432;48.728;9.154;2023-03-15T01:10:18;96265.03;;;2.74;91.03
14689;BME280;7432;48.728;9.154;2023-03-15T01:12:44;96274.88;;;2.67;91.35
14689;BME280;7432;48.728;9.154;2023-03-15T01:15:12;96272.09;;;2.70;89.47
14689;BME280;7432;48.728;9.154;2023-03-15T01:17:40;96271.88;;;2.62;90.83
14689;BME280;7432;48.728;9.154;2023-03-15T01:20:08;96268.31;;;2.54;90.08
14689;BME280;7432;48.728;9.154;2023-03-15T01:22:34;96278.25;;;2.46;89.50
14689;BME280;7432;48.728;9.154;2023-03-15T01:25:02;96280.66;;;2.36;90.15
14689;BME280;7432;48.728;9.154;2023-03-15T01:27:29;96279.81;;;2.24;91.72
14689;BME280;7432;48.728;9.154;2023-03-15T01:29:55;96285.25;;;2.09;90.76
14689;BME280;7432;48.728;9.154;2023-03-15T01:32:22;96281.34;;;2.05;93.17
14689;BME280;7432;48.728;9.154;2023-03-15T01:34:48;96282.84;;;2.07;92.38
14689;BME280;7432;48.728;9.154;2023-03-15T01:37:15;96280.50;;;1.93;92.51
14689;BME280;7432;48.728;9.154;2023-03-15T01:39:41;96291.47;;;1.94;93.07
14689;BME280;7432;48.728;9.154;2023-03-15T01:42:09;96287.06;;;1.85;94.03
14689;BME280;7432;48.728;9.154;2023-03-15T01:44:51;96292.72;;;1.88;94.13
14689;BME280;7432;48.728;9.154;2023-03-15T01:47:18;96291.53;;;1.81;94.63
14689;BME280;7432;48.728;9.154;2023-03-15T01:49:47;96290.72;;;1.80;92.82
14689;BME280;7432;48.728;9.154;2023-03-15T01:52:18;96299.47;;;1.65;93.53
14689;BME280;7432;48.728;9.154;2023-03-15T01:54:50;96300.63;;;1.72;94.13
14689;BME280;7432;48.728;9.154;2023-03-15T01:57:23;96303.16;;;1.72;94.06
14689;BME280;7432;48.728;9.154;2023-03-15T01:59:53;96305.22;;;1.67;94.72
14689;BME280;7432;48.728;9.154;2023-03-15T02:02:23;96315.28;;;1.69;93.74
14689;BME280;7432;48.728;9.154;2023-03-15T02:04:54;96309.25;;;1.70;93.35
14689;BME280;7432;48.728;9.154;2023-03-15T02:07:23;96314.69;;;1.65;93.13
14689;BME280;7432;48.728;9.154;2023-03-15T02:09:57;96323.66;;;1.58;93.03
14689;BME280;7432;48.728;9.154;2023-03-15T02:12:29;96323.75;;;1.57;93.37
14689;BME280;7432;48.728;9.154;2023-03-15T02:14:57;96325.59;;;1.55;90.98
14689;BME280;7432;48.728;9.154;2023-03-15T02:17:29;96330.84;;;1.41;92.90
14689;BME280;7432;48.728;9.154;2023-03-15T02:20:06;96330.03;;;1.40;92.48
14689;BME280;7432;48.728;9.154;2023-03-15T02:22:44;96332.94;;;1.47;93.16
14689;BME280;7432;48.728;9.154;2023-03-15T02:25:19;96330.78;;;1.53;91.97
14689;BME280;7432;48.728;9.154;2023-03-15T02:27:48;96336.78;;;1.52;92.77
14689;BME280;7432;48.728;9.154;2023-03-15T02:30:16;96340.78;;;1.44;93.55
14689;BME280;7432;48.728;9.154;2023-03-15T02:32:43;96337.75;;;1.39;92.16
14689;BME280;7432;48.728;9.154;2023-03-15T02:35:10;96350.16;;;1.31;93.88
14689;BME280;7432;48.728;9.154;2023-03-15T02:37:36;96349.44;;;1.29;93.49
14689;BME280;7432;48.728;9.154;2023-03-15T02:40:12;96354.16;;;1.22;93.86
14689;BME280;7432;48.728;9.154;2023-03-15T02:42:41;96359.31;;;1.20;93.68
14689;BME280;7432;48.728;9.154;2023-03-15T02:45:10;96359.31;;;1.20;93.56
14689;BME280;7432;48.728;9.154;2023-03-15T02:47:37;96369.34;;;1.22;94.45
14689;BME280;7432;48.728;9.154;2023-03-15T02:50:04;96371.19;;;1.20;92.96
14689;BME280;7432;48.728;9.154;2023-03-15T02:52:32;96368.88;;;1.17;93.55
14689;BME280;7432;48.728;9.154;2023-03-15T02:54:59;96378.28;;;1.15;93.87
14689;BME280;7432;48.728;9.154;2023-03-15T02:57:27;96382.66;;;1.13;93.59
14689;BME280;7432;48.728;9.154;2023-03-15T02:59:53;96382.47;;;1.16;93.48
14689;BME280;7432;48.728;9.154;2023-03-15T03:02:22;96391.38;;;1.22;92.40
14689;BME280;7432;48.728;9.154;2023-03-15T03:04:49;96394.72;;;1.09;93.19
14689;BME280;7432;48.728;9.154;2023-03-15T03:07:17;96402.44;;;1.08;93.53
14689;BME280;7432;48.728;9.154;2023-03-15T03:09:43;96414.91;;;1.11;93.26
14689;BME280;7432;48.728;9.154;2023-03-15T03:12:10;96411.59;;;0.98;93.55
14689;BME280;7432;48.728;9.154;2023-03-15T03:14:36;96413.66;;;0.93;94.39
14689;BME280;7432;48.728;9.154;2023-03-15T03:17:03;96420.44;;;0.92;94.85
14689;BME280;7432;48.728;9.154;2023-03-15T03:19:30;96420.72;;;1.00;94.11
14689;BME280;7432;48.728;9.154;2023-03-15T03:21:57;96423.25;;;1.00;94.06
14689;BME280;7432;48.728;9.154;2023-03-15T03:24:23;96436.47;;;0.93;93.69
14689;BME280;7432;48.728;9.154;2023-03-15T03:26:50;96431.06;;;0.85;94.86
14689;BME280;7432;48.728;9.154;2023-03-15T03:29:21;96440.41;;;0.84;94.38
14689;BME280;7432;48.728;9.154;2023-03-15T03:31:48;96444.88;;;0.81;95.01
14689;BME280;7432;48.728;9.154;2023-03-15T03:34:15;96443.34;;;0.78;95.60
14689;BME280;7432;48.728;9.154;2023-03-15T03:36:42;96451.25;;;0.86;95.94
14689;BME280;7432;48.728;9.154;2023-03-15T03:39:09;96442.84;;;0.73;95.20
14689;BME280;7432;48.728;9.154;2023-03-15T03:41:36;96460.47;;;0.87;93.86
14689;BME280;7432;48.728;9.154;2023-03-15T03:44:03;96432.78;;;0.72;94.29
14689;BME280;7432;48.728;9.154;2023-03-15T03:46:29;96462.81;;;0.78;94.81
14689;BME280;7432;48.728;9.154;2023-03-15T03:48:55;96458.44;;;0.80;93.68
14689;BME280;7432;48.728;9.154;2023-03-15T03:51:22;96469.00;;;0.74;93.96
14689;BME280;7432;48.728;9.154;2023-03-15T03:53:49;96465.94;;;0.81;94.93
14689;BME280;7432;48.728;9.154;2023-03-15T03:56:16;96477.31;;;0.76;94.63
14689;BME280;7432;48.728;9.154;2023-03-15T03:58:42;96479.44;;;0.82;93.34
14689;BME280;7432;48.728;9.154;2023-03-15T04:01:08;96485.09;;;0.73;94.04
14689;BME280;7432;48.728;9.154;2023-03-15T04:03:35;96486.31;;;0.67;93.01
14689;BME280;7432;48.728;9.154;2023-03-15T04:06:02;96490.25;;;0.58;93.96
14689;BME280;7432;48.728;9.154;2023-03-15T04:08:29;96495.81;;;0.64;93.77
14689;BME280;7432;48.728;9.154;2023-03-15T04:10:57;96500.88;;;0.64;94.40
14689;BME280;7432;48.728;9.154;2023-03-15T04:13:29;96509.22;;;0.66;94.28
14689;BME280;7432;48.728;9.154;2023-03-15T04:15:55;96504.63;;;0.58;94.41
14689;BME280;7432;48.728;9.154;2023-03-15T04:18:23;96515.59;;;0.58;94.79
14689;BME280;7432;48.728;9.154;2023-03-15T04:20:49;96515.97;;;0.52;95.01
14689;BME280;7432;48.728;9.154;2023-03-15T04:23:18;96521.97;;;0.51;95.39
14689;BME280;7432;48.728;9.154;2023-03-15T04:25:47;96520.25;;;0.65;94.88
14689;BME280;7432;48.728;9.154;2023-03-15T04:28:14;96519.44;;;0.64;93.54
14689;BME280;7432;48.728;9.154;2023-03-15T04:30:41;96526.41;;;0.60;94.52
14689;BME280;7432;48.728;9.154;2023-03-15T04:33:08;96532.69;;;0.55;93.60
14689;BME280;7432;48.728;9.154;2023-03-15T04:35:36;96534.72;;;0.50;94.64
14689;BME280;7432;48.728;9.154;2023-03-15T04:38:04;96505.00;;;0.39;94.74
14689;BME280;7432;48.728;9.154;2023-03-15T04:40:32;96525.19;;;0.53;93.23
14689;BME280;7432;48.728;9.154;2023-03-15T04:43:00;96532.59;;;0.56;93.93
14689;BME280;7432;48.728;9.154;2023-03-15T04:45:28;96538.75;;;0.52;93.29
14689;BME280;7432;48.728;9.154;2023-03-15T04:47:56;96544.31;;;0.45;94.06
14689;BME280;7432;48.728;9.154;2023-03-15T04:50:23;96543.00;;;0.39;93.31
14689;BME280;7432;48.728;9.154;2023-03-15T04:52:49;96539.22;;;0.32;93.44
14689;BME280;7432;48.728;9.154;2023-03-15T04:55:16;96528.78;;;0.24;94.43
14689;BME280;7432;48.728;9.154;2023-03-15T04:57:43;96537.72;;;0.30;94.54
14689;BME280;7432;48.728;9.154;2023-03-15T05:00:10;96535.69;;;0.35;93.54
14689;BME280;7432;48.728;9.154;2023-03-15T05:02:38;96539.38;;;0.43;92.79
14689;BME280;7432;48.728;9.154;2023-03-15T05:05:06;96538.50;;;0.30;94.06
14689;BME280;7432;48.728;9.154;2023-03-15T05:07:33;96536.03;;;0.16;93.73
14689;BME280;7432;48.728;9.154;2023-03-15T05:10:00;96538.34;;;0.19;94.06
14689;BME280;7432;48.728;9.154;2023-03-15T05:12:27;96539.47;;;0.15;94.44
14689;BME280;7432;48.728;9.154;2023-03-15T05:14:53;96531.69;;;0.18;93.88
14689;BME280;7432;48.728;9.154;2023-03-15T05:17:20;96544.53;;;0.15;93.62
14689;BME280;7432;48.728;9.154;2023-03-15T05:19:48;96533.88;;;0.10;94.48
14689;BME280;7432;48.728;9.154;2023-03-15T05:22:15;96539.94;;;0.08;94.73
14689;BME280;7432;48.728;9.154;2023-03-15T05:24:42;96535.91;;;0.05;94.69
14689;BME280;7432;48.728;9.154;2023-03-15T05:27:09;96539.44;;;0.03;94.45
14689;BME280;7432;48.728;9.154;2023-03-15T05:29:36;96544.88;;;-0.04;94.70
14689;BME280;7432;48.728;9.154;2023-03-15T05:32:04;96543.16;;;-0.03;95.00
14689;BME280;7432;48.728;9.154;2023-03-15T05:34:30;96540.44;;;0.00;94.79
14689;BME280;7432;48.728;9.154;2023-03-15T05:36:58;96549.81;;;-0.02;94.76
14689;BME280;7432;48.728;9.154;2023-03-15T05:39:24;96547.47;;;-0.05;94.70
14689;BME280;7432;48.728;9.154;2023-03-15T05:41:51;96557.41;;;-0.02;94.16
14689;BME280;7432;48.728;9.154;2023-03-15T05:44:17;96555.50;;;0.02;93.94
14689;BME280;7432;48.728;9.154;2023-03-15T05:46:44;96552.69;;;0.06;94.34
14689;BME280;7432;48.728;9.154;2023-03-15T05:49:10;96547.91;;;0.02;94.65
14689;BME280;7432;48.728;9.154;2023-03-15T05:51:37;96560.09;;;0.09;93.52
14689;BME280;7432;48.728;9.154;2023-03-15T05:54:04;96561.44;;;0.15;94.08
14689;BME280;7432;48.728;9.154;2023-03-15T05:56:31;96565.94;;;0.24;93.21
14689;BME280;7432;48.728;9.154;2023-03-15T05:58:57;96558.84;;;0.29;93.36
14689;BME280;7432;48.728;9.154;2023-03-15T06:01:27;96559.00;;;0.40;92.20
14689;BME280;7432;48.728;9.154;2023-03-15T06:03:53;96551.69;;;0.35;92.01
14689;BME280;7432;48.728;9.154;2023-03-15T06:06:19;96557.09;;;0.43;92.73
14689;BME280;7432;48.728;9.154;2023-03-15T06:08:46;96562.88;;;0.45;91.29
14689;BME280;7432;48.728;9.154;2023-03-15T06:11:13;96560.97;;;0.49;91.92
14689;BME280;7432;48.728;9.154;2023-03-15T06:13:40;96570.59;;;0.56;92.02
14689;BME280;7432;48.728;9.154;2023-03-15T06:16:06;96566.25;;;0.58;91.45
14689;BME280;7432;48.728;9.154;2023-03-15T06:18:33;96569.22;;;0.65;91.56
14689;BME280;7432;48.728;9.154;2023-03-15T06:20:59;96577.03;;;0.75;91.80
14689;BME280;7432;48.728;9.154;2023-03-15T06:23:25;96586.88;;;0.79;91.01
14689;BME280;7432;48.728;9.154;2023-03-15T06:25:52;96581.06;;;0.77;90.35
14689;BME280;7432;48.728;9.154;2023-03-15T06:28:19;96575.81;;;0.80;90.79
14689;BME280;7432;48.728;9.154;2023-03-15T06:30:46;96581.63;;;0.95;90.75
14689;BME280;7432;48.728;9.154;2023-03-15T06:33:12;96586.31;;;1.01;90.94
14689;BME280;7432;48.728;9.154;2023-03-15T06:35:38;96588.66;;;1.16;89.09
14689;BME280;7432;48.728;9.154;2023-03-15T06:38:05;96595.13;;;1.20;89.46
14689;BME280;7432;48.728;9.154;2023-03-15T06:40:31;96600.72;;;1.38;88.62
14689;BME280;7432;48.728;9.154;2023-03-15T06:42:58;96594.13;;;1.48;87.66
14689;BME280;7432;48.728;9.154;2023-03-15T06:45:29;96593.53;;;1.57;86.85
14689;BME280;7432;48.728;9.154;2023-03-15T06:47:56;96599.59;;;1.67;87.01
14689;BME280;7432;48.728;9.154;2023-03-15T06:50:23;96594.72;;;1.77;87.09
14689;BME280;7432;48.728;9.154;2023-03-15T06:52:49;96600.09;;;1.85;86.50
14689;BME280;7432;48.728;9.154;2023-03-15T06:55:16;96607.38;;;1.90;85.86
14689;BME280;7432;48.728;9.154;2023-03-15T06:57:42;96599.44;;;2.07;85.11
14689;BME280;7432;48.728;9.154;2023-03-15T07:00:10;96603.16;;;2.14;85.21
14689;BME280;7432;48.728;9.154;2023-03-15T07:02:38;96602.63;;;2.21;84.48
14689;BME280;7432;48.728;9.154;2023-03-15T07:05:05;96603.28;;;2.36;82.90
14689;BME280;7432;48.728;9.154;2023-03-15T07:07:32;96603.16;;;2.50;83.33
14689;BME280;7432;48.728;9.154;2023-03-15T07:09:58;96606.88;;;2.57;81.25
14689;BME280;7432;48.728;9.154;2023-03-15T07:12:25;96615.53;;;2.78;80.05
14689;BME280;7432;48.728;9.154;2023-03-15T07:14:51;96616.19;;;3.04;78.81
14689;BME280;7432;48.728;9.154;2023-03-15T07:17:17;96615.56;;;3.24;78.18
14689;BME280;7432;48.728;9.154;2023-03-15T07:19:45;96612.56;;;3.52;76.46
14689;BME280;7432;48.728;9.154;2023-03-15T07:22:12;96614.47;;;3.73;75.85
14689;BME280;7432;48.728;9.154;2023-03-15T07:24:38;96611.47;;;3.79;76.38
14689;BME280;7432;48.728;9.154;2023-03-15T07:27:05;96616.66;;;3.88;74.44
14689;BME280;7432;48.728;9.154;2023-03-15T07:29:31;96628.69;;;4.08;74.58
14689;BME280;7432;48.728;9.154;2023-03-15T07:31:57;96620.84;;;4.00;74.39
14689;BME280;7432;48.728;9.154;2023-03-15T07:34:25;96631.69;;;4.36;73.18
14689;BME280;7432;48.728;9.154;2023-03-15T07:36:53;96633.31;;;4.37;73.10
14689;BME280;7432;48.728;9.154;2023-03-15T07:39:19;96635.66;;;5.03;71.47
14689;BME280;7432;48.728;9.154;2023-03-15T07:41:46;96622.28;;;5.31;68.50
14689;BME280;7432;48.728;9.154;2023-03-15T07:44:12;96638.44;;;6.04;68.20
14689;BME280;7432;48.728;9.154;2023-03-15T07:46:39;96646.03;;;6.74;64.00
14689;BME280;7432;48.728;9.154;2023-03-15T07:49:05;96650.09;;;7.05;64.44
14689;BME280;7432;48.728;9.154;2023-03-15T07:51:31;96651.41;;;7.38;62.24
14689;BME280;7432;48.728;9.154;2023-03-15T07:53:59;96661.69;;;6.99;64.05
14689;BME280;7432;48.728;9.154;2023-03-15T07:56:25;96653.03;;;7.39;62.24
14689;BME280;7432;48.728;9.154;2023-03-15T07:58:52;96651.72;;;8.64;59.93
14689;BME280;7432;48.728;9.154;2023-03-15T08:01:18;96649.41;;;10.52;53.23
14689;BME280;7432;48.728;9.154;2023-03-15T08:03:45;96651.03;;;12.39;48.97
14689;BME280;7432;48.728;9.154;2023-03-15T08:06:12;96650.50;;;14.69;44.24
14689;BME280;7432;48.728;9.154;2023-03-15T08:08:38;96651.94;;;16.67;40.00
14689;BME280;7432;48.728;9.154;2023-03-15T08:11:06;96659.31;;;18.55;36.38
14689;BME280;7432;48.728;9.154;2023-03-15T08:13:32;96664.34;;;19.70;34.46
14689;BME280;7432;48.728;9.154;2023-03-15T08:16:00;96661.97;;;21.50;31.30
14689;BME280;7432;48.728;9.154;2023-03-15T08:18:26;96666.06;;;22.57;28.99
14689;BME280;7432;48.728;9.154;2023-03-15T08:20:54;96659.78;;;23.10;27.79
14689;BME280;7432;48.728;9.154;2023-03-15T08:23:21;96664.50;;;23.08;28.48
14689;BME280;7432;48.728;9.154;2023-03-15T08:25:47;96667.28;;;25.06;26.32
14689;BME280;7432;48.728;9.154;2023-03-15T08:28:16;96662.97;;;23.68;26.84
14689;BME280;7432;48.728;9.154;2023-03-15T08:30:42;96660.09;;;24.96;25.77
14689;BME280;7432;48.728;9.154;2023-03-15T08:33:09;96670.56;;;24.91;25.83
14689;BME280;7432;48.728;9.154;2023-03-15T08:35:36;96669.69;;;25.56;24.59
14689;BME280;7432;48.728;9.154;2023-03-15T08:38:03;96667.06;;;26.19;24.61
14689;BME280;7432;48.728;9.154;2023-03-15T08:40:30;96670.31;;;27.60;23.68
14689;BME280;7432;48.728;9.154;2023-03-15T08:42:56;96661.97;;;27.06;23.01
14689;BME280;7432;48.728;9.154;2023-03-15T08:45:24;96668.66;;;26.67;23.14
14689;BME280;7432;48.728;9.154;2023-03-15T08:47:53;96668.03;;;25.76;23.64
14689;BME280;7432;48.728;9.154;2023-03-15T08:50:20;96663.25;;;26.94;22.67
14689;BME280;7432;48.728;9.154;2023-03-15T08:52:46;96674.16;;;27.08;22.36
14689;BME280;7432;48.728;9.154;2023-03-15T08:55:13;96670.47;;;27.24;22.18
14689;BME280;7432;48.728;9.154;2023-03-15T08:57:40;96671.88;;;24.50;24.09
14689;BME280;7432;48.728;9.154;2023-03-15T09:00:08;96665.88;;;22.70;25.55
14689;BME280;7432;48.728;9.154;2023-03-15T09:02:36;96671.50;;;20.06;28.24
14689;BME280;7432;48.728;9.154;2023-03-15T09:05:03;96671.00;;;18.33;30.04
14689;BME280;7432;48.728;9.154;2023-03-15T09:07:31;96670.38;;;17.39;31.27
14689;BME280;7432;48.728;9.154;2023-03-15T09:09:57;96675.38;;;17.47;32.10
14689;BME280;7432;48.728;9.154;2023-03-15T09:12:24;96679.56;;;17.29;31.41
14689;BME280;7432;48.728;9.154;2023-03-15T09:14:51;96689.00;;;16.41;32.97
14689;BME280;7432;48.728;9.154;2023-03-15T09:17:17;96695.22;;;15.64;33.47
14689;BME280;7432;48.728;9.154;2023-03-15T09:19:45;96675.56;;;15.76;34.13
14689;BME280;7432;48.728;9.154;2023-03-15T09:22:11;96689.56;;;16.37;33.31
14689;BME280;7432;48.728;9.154;2023-03-15T09:24:37;96687.66;;;15.48;34.20
14689;BME280;7432;48.728;9.154;2023-03-15T09:27:04;96686.38;;;13.16;37.58
14689;BME280;7432;48.728;9.154;2023-03-15T09:29:30;96683.94;;;12.84;39.47
14689;BME280;7432;48.728;9.154;2023-03-15T09:31:57;96688.41;;;11.96;40.86
14689;BME280;7432;48.728;9.154;2023-03-15T09:34:26;96684.97;;;11.07;43.32
14689;BME280;7432;48.728;9.154;2023-03-15T09:36:54;96687.88;;;10.20;44.47
14689;BME280;7432;48.728;9.154;2023-03-15T09:39:21;96688.09;;;10.09;43.67
14689;BME280;7432;48.728;9.154;2023-03-15T09:41:49;96699.28;;;9.74;45.04
14689;BME280;7432;48.728;9.154;2023-03-15T09:44:31;96693.97;;;9.50;46.29
14689;BME280;7432;48.728;9.154;2023-03-15T09:47:11;96664.00;;;9.06;46.38
14689;BME280;7432;48.728;9.154;2023-03-15T09:49:45;96685.03;;;8.74;48.12
14689;BME280;7432;48.728;9.154;2023-03-15T09:52:25;96695.25;;;8.56;48.47
14689;BME280;7432;48.728;9.154;2023-03-15T09:54:56;96690.75;;;8.41;47.07
14689;BME280;7432;48.728;9.154;2023-03-15T09:57:25;96705.56;;;8.00;49.53
14689;BME280;7432;48.728;9.154;2023-03-15T09:59:57;96708.34;;;8.16;50.17
14689;BME280;7432;48.728;9.154;2023-03-15T10:02:28;96706.88;;;8.14;49.64
14689;BME280;7432;48.728;9.154;2023-03-15T10:04:58;96708.06;;;8.19;50.08
14689;BME280;7432;48.728;9.154;2023-03-15T10:07:27;96697.34;;;8.43;51.14
14689;BME280;7432;48.728;9.154;2023-03-15T10:09:54;96694.03;;;8.60;51.51
14689;BME280;7432;48.728;9.154;2023-03-15T10:12:28;96690.47;;;8.88;50.40
14689;BME280;7432;48.728;9.154;2023-03-15T10:15:09;96694.66;;;9.07;48.09
14689;BME280;7432;48.728;9.154;2023-03-15T10:17:47;96698.44;;;9.48;48.90
14689;BME280;7432;48.728;9.154;2023-03-15T10:20:18;96702.94;;;9.28;49.70
14689;BME280;7432;48.728;9.154;2023-03-15T10:22:51;96697.19;;;9.34;48.78
14689;BME280;7432;48.728;9.154;2023-03-15T10:25:20;96681.75;;;9.52;48.13
14689;BME280;7432;48.728;9.154;2023-03-15T10:27:53;96696.88;;;9.98;47.06
14689;BME280;7432;48.728;9.154;2023-03-15T10:30:23;96685.53;;;9.83;47.16
14689;BME280;7432;48.728;9.154;2023-03-15T10:32:53;96695.31;;;10.31;45.00
14689;BME280;7432;48.728;9.154;2023-03-15T10:35:21;96695.44;;;10.55;44.04
14689;BME280;7432;48.728;9.154;2023-03-15T10:37:49;96684.69;;;10.60;44.34
14689;BME280;7432;48.728;9.154;2023-03-15T10:40:38;96688.81;;;10.53;44.72
14689;BME280;7432;48.728;9.154;2023-03-15T10:43:12;96686.63;;;10.24;46.27
14689;BME280;7432;48.728;9.154;2023-03-15T10:45:39;96686.75;;;10.23;47.61
14689;BME280;7432;48.728;9.154;2023-03-15T10:48:07;96680.56;;;10.83;45.98
14689;BME280;7432;48.728;9.154;2023-03-15T10:50:37;96672.84;;;10.83;46.84
14689;BME280;7432;48.728;9.154;2023-03-15T10:53:09;96677.91;;;11.09;45.91
14689;BME280;7432;48.728;9.154;2023-03-15T10:55:41;96680.63;;;11.15;44.07
14689;BME280;7432;48.728;9.154;2023-03-15T10:58:18;96678.88;;;11.24;44.78
14689;BME280;7432;48.728;9.154;2023-03-15T11:00:49;96676.31;;;11.24;43.61
14689;BME280;7432;48.728;9.154;2023-03-15T11:03:18;96682.56;;;11.05;43.91
14689;BME280;7432;48.728;9.154;2023-03-15T11:05:47;96680.41;;;10.85;44.48
14689;BME280;7432;48.728;9.154;2023-03-15T11:08:16;96674.22;;;10.28;44.80
14689;BME280;7432;48.728;9.154;2023-03-15T11:10:44;96677.13;;;10.66;44.09
14689;BME280;7432;48.728;9.154;2023-03-15T11:13:12;96676.84;;;10.10;42.96
14689;BME280;7432;48.728;9.154;2023-03-15T11:15:48;96685.59;;;9.48;44.12
14689;BME280;7432;48.728;9.154;2023-03-15T11:18:25;96675.69;;;9.18;45.64
14689;BME280;7432;48.728;9.154;2023-03-15T11:20:54;96662.13;;;8.63;47.12
14689;BME280;7432;48.728;9.154;2023-03-15T11:23:25;96674.69;;;8.66;46.42
14689;BME280;7432;48.728;9.154;2023-03-15T11:25:53;96675.88;;;8.44;47.96
14689;BME280;7432;48.728;9.154;2023-03-15T11:28:22;96675.13;;;8.24;48.36
14689;BME280;7432;48.728;9.154;2023-03-15T11:30:50;96676.06;;;8.23;48.98
14689;BME280;7432;48.728;9.154;2023-03-15T11:33:25;96668.75;;;8.38;47.42
14689;BME280;7432;48.728;9.154;2023-03-15T11:35:52;96668.66;;;8.57;49.16
14689;BME280;7432;48.728;9.154;2023-03-15T11:38:29;96674.13;;;8.89;47.78
14689;BME280;7432;48.728;9.154;2023-03-15T11:40:59;96664.72;;;8.80;48.21
14689;BME280;7432;48.728;9.154;2023-03-15T11:43:30;96661.84;;;8.66;47.14
14689;BME280;7432;48.728;9.154;2023-03-15T11:46:03;96662.16;;;8.80;47.53
14689;BME280;7432;48.728;9.154;2023-03-15T11:48:35;96663.22;;;8.60;46.88
14689;BME280;7432;48.728;9.154;2023-03-15T11:51:05;96674.88;;;8.55;46.45
14689;BME280;7432;48.728;9.154;2023-03-15T11:53:37;96666.16;;;8.65;46.12
14689;BME280;7432;48.728;9.154;2023-03-15T11:56:21;96668.84;;;8.64;46.89
14689;BME280;7432;48.728;9.154;2023-03-15T11:59:00;96665.63;;;8.34;44.88
14689;BME280;7432;48.728;9.154;2023-03-15T12:01:32;96669.56;;;8.29;45.11
14689;BME280;7432;48.728;9.154;2023-03-15T12:06:56;96675.06;;;8.44;46.01
14689;BME280;7432;48.728;9.154;2023-03-15T12:09:44;96676.91;;;8.51;43.89
14689;BME280;7432;48.728;9.154;2023-03-15T12:12:34;96672.84;;;8.76;43.92
14689;BME280;7432;48.728;9.154;2023-03-15T12:15:04;96672.84;;;8.76;44.34
14689;BME280;7432;48.728;9.154;2023-03-15T12:17:37;96669.88;;;8.98;42.51
14689;BME280;7432;48.728;9.154;2023-03-15T12:20:10;96678.84;;;9.12;42.31
14689;BME280;7432;48.728;9.154;2023-03-15T12:22:41;96672.38;;;9.25;43.17
14689;BME280;7432;48.728;9.154;2023-03-15T12:25:13;96666.94;;;9.28;42.79
14689;BME280;7432;48.728;9.154;2023-03-15T12:27:46;96670.53;;;9.35;42.90
14689;BME280;7432;48.728;9.154;2023-03-15T12:30:19;96671.47;;;9.52;42.90
14689;BME280;7432;48.728;9.154;2023-03-15T12:32:49;96665.56;;;9.60;41.56
14689;BME280;7432;48.728;9.154;2023-03-15T12:35:18;96652.59;;;9.61;42.51
14689;BME280;7432;48.728;9.154;2023-03-15T12:37:47;96651.63;;;9.62;42.68
14689;BME280;7432;48.728;9.154;2023-03-15T12:40:38;96675.72;;;9.61;42.56
14689;BME280;7432;48.728;9.154;2023-03-15T12:43:05;96672.16;;;9.36;42.39
14689;BME280;7432;48.728;9.154;2023-03-15T12:45:44;96676.41;;;9.10;43.22
14689;BME280;7432;48.728;9.154;2023-03-15T12:48:27;96670.00;;;8.79;43.65
14689;BME280;7432;48.728;9.154;2023-03-15T12:50:56;96671.22;;;8.57;45.13
14689;BME280;7432;48.728;9.154;2023-03-15T12:53:28;96663.63;;;8.28;45.37
14689;BME280;7432;48.728;9.154;2023-03-15T12:56:23;96669.69;;;8.37;46.19
14689;BME280;7432;48.728;9.154;2023-03-15T12:58:53;96672.50;;;8.44;46.58
14689;BME280;7432;48.728;9.154;2023-03-15T13:01:21;96675.91;;;8.34;46.45
14689;BME280;7432;48.728;9.154;2023-03-15T13:03:53;96667.53;;;8.23;46.72
14689;BME280;7432;48.728;9.154;2023-03-15T13:06:26;96671.38;;;8.09;47.49
14689;BME280;7432;48.728;9.154;2023-03-15T13:09:01;96687.41;;;8.21;47.55
14689;BME280;7432;48.728;9.154;2023-03-15T13:11:34;96680.44;;;8.04;49.45
14689;BME280;7432;48.728;9.154;2023-03-15T13:14:20;96688.63;;;8.17;49.41
14689;BME280;7432;48.728;9.154;2023-03-15T13:16:53;96684.47;;;8.16;48.56
14689;BME280;7432;48.728;9.154;2023-03-15T13:19:25;96674.31;;;8.24;48.84
14689;BME280;7432;48.728;9.154;2023-03-15T13:22:03;96679.47;;;8.51;48.88
14689;BME280;7432;48.728;9.154;2023-03-15T13:24:40;96675.88;;;8.71;48.63
14689;BME280;7432;48.728;9.154;2023-03-15T13:27:19;96673.69;;;8.94;48.81
14689;BME280;7432;48.728;9.154;2023-03-15T13:29:49;96667.88;;;8.92;49.68
14689;BME280;7432;48.728;9.154;2023-03-15T13:32:17;96680.94;;;8.81;50.52